Time;durP1;ratioP1;P1;durP2;ratioP2;P2;SDS_P1;SDS_P2;PMS_P1;PMS_P2;Temp;Humidity;BMP_temperature;BMP_pressure;BME280_temperature;BME280_humidity;BME280_pressure;Samples;Min_cycle;Max_cycle;Signal;HPM_P1;HPM_P2
2021/07/25 00:01:33;;;;;;;;;;;;;;;21.71;59.31;100831.09;5158385;27;529;-53
2021/07/25 00:03:58;;;;;;;;;;;;;;;21.23;60.69;100836.97;5158628;27;759;-42
2021/07/25 00:06:24;;;;;;;;;;;;;;;21.02;61.66;100837.31;5158109;27;1175;-50
2021/07/25 00:08:49;;;;;;;;;;;;;;;20.96;59.24;100838.53;5158005;27;772;-42
2021/07/25 00:11:17;;;;;;;;;;;;;;;20.91;60.55;100847.72;5158131;27;969;-54
2021/07/25 00:13:47;;;;;;;;;;;;;;;21.26;61.64;100848.22;5140102;27;644;-55
2021/07/25 00:16:12;;;;;;;;;;;;;;;21.45;60.54;100842.63;5158085;27;1977;-54
2021/07/25 00:18:38;;;;;;;;;;;;;;;21.56;59.02;100839.69;5158202;27;790;-43
2021/07/25 00:21:03;;;;;;;;;;;;;;;21.83;58.54;100845.25;5158145;27;838;-43
2021/07/25 00:23:29;;;;;;;;;;;;;;;21.62;59.21;100850.38;5157736;27;747;-42
2021/07/25 00:25:57;;;;;;;;;;;;;;;20.94;60.32;100849.06;5157778;27;1019;-54
2021/07/25 00:28:32;;;;;;;;;;;;;;;20.70;59.04;100847.22;5157840;27;743;-54
2021/07/25 00:31:03;;;;;;;;;;;;;;;20.48;58.60;100845.88;5158233;27;774;-53
2021/07/25 00:33:30;;;;;;;;;;;;;;;20.69;56.45;100848.34;5157440;27;797;-54
2021/07/25 00:35:55;;;;;;;;;;;;;;;21.05;55.33;100841.44;5157524;27;1972;-55
2021/07/25 00:38:21;;;;;;;;;;;;;;;21.14;55.81;100851.50;5158152;27;771;-42
2021/07/25 00:40:46;;;;;;;;;;;;;;;21.22;56.18;100847.19;5158334;27;747;-45
2021/07/25 00:43:24;;;;;;;;;;;;;;;21.26;56.39;100839.13;5157463;27;949;-54
2021/07/25 00:45:50;;;;;;;;;;;;;;;21.48;56.11;100832.91;5157769;27;849;-54
2021/07/25 00:48:17;;;;;;;;;;;;;;;21.57;56.44;100838.59;5157580;27;854;-54
2021/07/25 00:50:42;;;;;;;;;;;;;;;21.45;56.60;100834.34;5157691;27;775;-54
2021/07/25 00:53:08;;;;;;;;;;;;;;;21.53;56.76;100843.91;5157958;27;783;-54
2021/07/25 00:55:33;;;;;;;;;;;;;;;21.06;58.36;100846.66;5157788;27;1973;-54
2021/07/25 00:58:01;;;;;;;;;;;;;;;20.75;59.37;100849.06;5157140;27;960;-54
2021/07/25 01:00:26;;;;;;;;;;;;;;;20.35;59.22;100852.94;5157578;27;803;-42
2021/07/25 01:02:59;;;;;;;;;;;;;;;20.77;59.72;100857.91;5157764;27;744;-53
2021/07/25 01:05:45;;;;;;;;;;;;;;;21.17;57.93;100853.63;5139143;27;1034;-54
2021/07/25 01:08:19;;;;;;;;;;;;;;;21.50;57.02;100856.38;5156778;27;1516;-52
2021/07/25 01:10:44;;;;;;;;;;;;;;;21.40;57.35;100855.75;5139493;27;800;-53
2021/07/25 01:13:15;;;;;;;;;;;;;;;21.47;57.17;100848.69;5138643;27;985;-54
2021/07/25 01:15:41;;;;;;;;;;;;;;;21.63;56.67;100848.41;5122053;27;1971;-54
2021/07/25 01:18:06;;;;;;;;;;;;;;;21.44;57.16;100852.06;5157459;27;814;-42
2021/07/25 01:20:31;;;;;;;;;;;;;;;20.77;59.35;100855.94;5157587;27;778;-54
2021/07/25 01:22:57;;;;;;;;;;;;;;;20.69;59.48;100859.38;5157536;27;835;-51
2021/07/25 01:25:23;;;;;;;;;;;;;;;20.44;60.19;100855.88;5157702;27;861;-51
2021/07/25 01:28:07;;;;;;;;;;;;;;;20.92;59.06;100854.09;5138639;27;953;-54
2021/07/25 01:30:34;;;;;;;;;;;;;;;21.11;58.32;100854.03;5138927;27;767;-54
2021/07/25 01:33:01;;;;;;;;;;;;;;;21.13;57.04;100849.84;5138363;27;879;-54
2021/07/25 01:35:27;;;;;;;;;;;;;;;21.02;55.80;100853.91;5157982;27;715;-43
2021/07/25 01:37:52;;;;;;;;;;;;;;;20.83;54.41;100856.69;5138286;27;1983;-54
2021/07/25 01:40:20;;;;;;;;;;;;;;;20.76;53.29;100854.31;5138216;27;900;-55
2021/07/25 01:42:46;;;;;;;;;;;;;;;20.80;53.28;100854.53;5157329;27;1016;-50
2021/07/25 01:45:12;;;;;;;;;;;;;;;20.72;53.98;100855.22;5159421;27;827;-55
2021/07/25 01:47:37;;;;;;;;;;;;;;;20.97;53.94;100852.06;5160752;27;770;-47
2021/07/25 01:50:04;;;;;;;;;;;;;;;20.83;54.62;100865.81;5161331;27;782;-54
2021/07/25 01:52:29;;;;;;;;;;;;;;;20.97;54.66;100859.50;5160504;27;782;-54
2021/07/25 01:54:55;;;;;;;;;;;;;;;21.04;54.63;100857.16;5160923;27;735;-54
2021/07/25 01:57:20;;;;;;;;;;;;;;;21.06;54.49;100859.66;5160344;27;1917;-54
2021/07/25 01:59:45;;;;;;;;;;;;;;;21.00;54.82;100861.69;5160541;27;732;-43
2021/07/25 02:02:11;;;;;;;;;;;;;;;21.12;54.61;100862.00;5161113;27;727;-55
2021/07/25 02:04:36;;;;;;;;;;;;;;;21.10;54.99;100861.50;5160396;27;1238;-45
2021/07/25 02:07:02;;;;;;;;;;;;;;;21.01;54.98;100858.63;5160314;27;825;-51
2021/07/25 02:09:27;;;;;;;;;;;;;;;21.05;55.16;100860.78;5160544;27;882;-52
2021/07/25 02:11:53;;;;;;;;;;;;;;;20.91;55.63;100863.50;5160661;27;973;-55
2021/07/25 02:14:19;;;;;;;;;;;;;;;21.14;54.93;100857.03;5160315;27;560;-54
2021/07/25 02:16:44;;;;;;;;;;;;;;;21.24;54.68;100860.72;5160503;27;1978;-54
2021/07/25 02:19:09;;;;;;;;;;;;;;;21.31;54.40;100861.16;5159819;27;818;-54
2021/07/25 02:21:35;;;;;;;;;;;;;;;21.35;54.33;100851.94;5160261;27;834;-54
2021/07/25 02:24:00;;;;;;;;;;;;;;;21.25;54.72;100857.66;5160410;27;783;-54
2021/07/25 02:26:26;;;;;;;;;;;;;;;21.36;54.54;100850.00;5160226;27;1012;-54
2021/07/25 02:28:51;;;;;;;;;;;;;;;21.25;54.55;100860.44;5160264;27;782;-55
2021/07/25 02:31:16;;;;;;;;;;;;;;;21.29;54.45;100852.34;5141442;27;896;-43
2021/07/25 02:33:42;;;;;;;;;;;;;;;21.66;53.60;100853.34;5160045;27;731;-52
2021/07/25 02:36:07;;;;;;;;;;;;;;;21.32;54.82;100855.31;5160237;27;1917;-52
2021/07/25 02:38:33;;;;;;;;;;;;;;;21.30;54.81;100854.78;5160143;27;763;-55
2021/07/25 02:40:59;;;;;;;;;;;;;;;21.49;54.46;100857.50;5159983;27;1024;-54
2021/07/25 02:43:25;;;;;;;;;;;;;;;21.25;55.01;100860.44;5159857;27;779;-55
2021/07/25 02:45:50;;;;;;;;;;;;;;;21.33;55.00;100858.91;5160185;27;788;-54
2021/07/25 02:48:15;;;;;;;;;;;;;;;21.27;55.07;100865.66;5159427;27;819;-55
2021/07/25 02:50:41;;;;;;;;;;;;;;;21.31;54.70;100867.50;5159799;27;882;-42
2021/07/25 02:53:06;;;;;;;;;;;;;;;21.29;54.77;100866.16;5159852;27;827;-45
2021/07/25 02:55:32;;;;;;;;;;;;;;;21.23;55.04;100870.16;5158944;27;1972;-54
2021/07/25 02:57:57;;;;;;;;;;;;;;;20.77;56.43;100868.94;5158877;27;984;-51
2021/07/25 03:00:22;;;;;;;;;;;;;;;20.50;57.54;100868.47;5159654;27;791;-54
2021/07/25 03:02:48;;;;;;;;;;;;;;;20.33;57.71;100868.19;5159419;27;806;-53
2021/07/25 03:05:13;;;;;;;;;;;;;;;20.54;57.63;100877.00;5159362;27;1112;-52
2021/07/25 03:07:39;;;;;;;;;;;;;;;21.22;56.32;100871.28;5159662;27;751;-54
2021/07/25 03:10:05;;;;;;;;;;;;;;;21.34;56.79;100871.63;5158900;27;735;-43
2021/07/25 03:12:30;;;;;;;;;;;;;;;21.24;57.84;100877.31;5159446;27;1004;-43
2021/07/25 03:14:55;;;;;;;;;;;;;;;21.42;57.62;100878.38;5159160;27;819;-53
2021/07/25 03:17:21;;;;;;;;;;;;;;;21.02;59.46;100873.25;5159310;27;1968;-53
2021/07/25 03:19:47;;;;;;;;;;;;;;;20.74;59.81;100873.13;5159212;27;858;-45
2021/07/25 03:22:12;;;;;;;;;;;;;;;20.63;58.97;100871.63;5158712;27;806;-54
2021/07/25 03:24:38;;;;;;;;;;;;;;;21.02;60.66;100865.78;5159498;27;735;-51
2021/07/25 03:27:03;;;;;;;;;;;;;;;21.49;59.18;100871.34;5158819;27;1028;-55
2021/07/25 03:29:29;;;;;;;;;;;;;;;21.72;58.39;100871.50;5158522;27;739;-54
2021/07/25 03:31:54;;;;;;;;;;;;;;;21.83;58.35;100869.34;5159008;27;573;-55
2021/07/25 03:34:20;;;;;;;;;;;;;;;21.29;59.99;100872.50;5159274;27;783;-55
2021/07/25 03:36:45;;;;;;;;;;;;;;;20.92;61.61;100873.44;5158358;27;1905;-53
2021/07/25 03:39:12;;;;;;;;;;;;;;;20.73;59.34;100868.72;5158641;27;799;-45
2021/07/25 03:41:38;;;;;;;;;;;;;;;20.85;61.10;100877.38;5158520;27;1000;-54
2021/07/25 03:44:03;;;;;;;;;;;;;;;21.17;61.34;100878.53;5158537;27;491;-45
2021/07/25 03:46:29;;;;;;;;;;;;;;;21.35;60.67;100874.06;5158790;27;719;-53
2021/07/25 03:48:54;;;;;;;;;;;;;;;21.73;59.45;100884.22;5158444;27;744;-43
2021/07/25 03:51:19;;;;;;;;;;;;;;;21.43;60.21;100883.59;5158384;27;823;-54
2021/07/25 03:53:45;;;;;;;;;;;;;;;21.14;61.36;100879.13;5158651;27;827;-44
2021/07/25 03:56:10;;;;;;;;;;;;;;;21.04;60.66;100890.34;5159004;27;1973;-51
2021/07/25 03:58:36;;;;;;;;;;;;;;;20.77;59.79;100880.81;5163000;27;802;-53
2021/07/25 04:01:01;;;;;;;;;;;;;;;21.08;62.04;100885.84;5178920;27;822;-43
2021/07/25 04:03:27;;;;;;;;;;;;;;;21.45;60.78;100888.84;5162470;27;803;-54
2021/07/25 04:05:52;;;;;;;;;;;;;;;21.44;59.53;100896.31;5158159;27;1258;-45
2021/07/25 04:08:18;;;;;;;;;;;;;;;21.73;59.62;100898.06;5158606;27;1420;-47
2021/07/25 04:10:43;;;;;;;;;;;;;;;21.50;60.21;100900.66;5177462;27;762;-45
2021/07/25 04:13:09;;;;;;;;;;;;;;;21.25;61.39;100899.16;5158522;27;956;-46
2021/07/25 04:15:41;;;;;;;;;;;;;;;20.65;61.40;100900.59;5158177;27;1980;-50
2021/07/25 04:18:07;;;;;;;;;;;;;;;20.43;61.08;100898.41;5139432;27;910;-53
2021/07/25 04:20:33;;;;;;;;;;;;;;;20.64;63.83;100895.38;5173821;27;838;-49
2021/07/25 04:22:59;;;;;;;;;;;;;;;21.03;62.62;100899.78;5179145;27;782;-54
2021/07/25 04:25:24;;;;;;;;;;;;;;;21.19;61.64;100906.69;5178823;27;767;-55
2021/07/25 04:27:50;;;;;;;;;;;;;;;21.20;61.84;100902.00;5161184;27;1092;-49
2021/07/25 04:30:15;;;;;;;;;;;;;;;21.41;60.78;100905.22;5157937;27;799;-52
2021/07/25 04:32:41;;;;;;;;;;;;;;;21.17;58.03;100906.19;5157765;27;800;-45
2021/07/25 04:35:08;;;;;;;;;;;;;;;21.39;58.30;100912.19;5158363;27;895;-56
2021/07/25 04:37:36;;;;;;;;;;;;;;;21.43;61.11;100919.56;5157915;27;1913;-52
2021/07/25 04:40:01;;;;;;;;;;;;;;;21.58;60.92;100921.28;5157392;27;789;-53
2021/07/25 04:42:26;;;;;;;;;;;;;;;21.60;60.96;100919.06;5157673;27;965;-53
2021/07/25 04:44:58;;;;;;;;;;;;;;;21.20;61.96;100924.94;5139465;27;736;-62
2021/07/25 04:47:29;;;;;;;;;;;;;;;21.01;62.42;100924.13;5138556;27;922;-51
2021/07/25 04:50:00;;;;;;;;;;;;;;;20.75;61.86;100927.28;5157757;27;794;-53
2021/07/25 04:52:26;;;;;;;;;;;;;;;20.39;59.42;100926.91;5138633;27;931;-53
2021/07/25 04:54:51;;;;;;;;;;;;;;;21.00;61.02;100926.09;5139329;27;755;-53
2021/07/25 04:57:17;;;;;;;;;;;;;;;21.41;61.88;100929.31;5138979;27;1913;-51
2021/07/25 04:59:44;;;;;;;;;;;;;;;21.63;61.10;100935.03;5157725;27;837;-50
2021/07/25 05:02:10;;;;;;;;;;;;;;;21.55;61.14;100932.97;5157466;27;492;-59
2021/07/25 05:04:36;;;;;;;;;;;;;;;20.75;64.04;100934.72;5157678;27;1191;-55
2021/07/25 05:07:02;;;;;;;;;;;;;;;20.38;63.78;100939.06;5157191;27;755;-57
2021/07/25 05:09:27;;;;;;;;;;;;;;;20.42;61.81;100931.84;5157587;27;810;-55
2021/07/25 05:11:57;;;;;;;;;;;;;;;20.80;60.13;100934.66;5139007;27;1739;-57
2021/07/25 05:14:29;;;;;;;;;;;;;;;21.55;61.33;100932.16;5139325;27;791;-56
2021/07/25 05:16:57;;;;;;;;;;;;;;;21.95;60.99;100935.28;5157919;27;1976;-56
2021/07/25 05:19:33;;;;;;;;;;;;;;;21.77;61.07;100943.38;5159816;27;724;-57
2021/07/25 05:22:04;;;;;;;;;;;;;;;21.15;63.18;100944.38;5142931;27;755;-44
2021/07/25 05:24:29;;;;;;;;;;;;;;;20.96;63.74;100943.59;5143491;27;780;-58
2021/07/25 05:26:55;;;;;;;;;;;;;;;20.50;60.19;100937.53;5161211;27;969;-57
2021/07/25 05:29:21;;;;;;;;;;;;;;;21.15;59.17;100949.91;5161273;27;803;-57
2021/07/25 05:31:46;;;;;;;;;;;;;;;21.60;60.70;100945.88;5142115;27;897;-54
2021/07/25 05:34:11;;;;;;;;;;;;;;;21.92;61.02;100958.03;5161624;27;794;-58
2021/07/25 05:36:37;;;;;;;;;;;;;;;22.07;60.60;100954.97;5161105;27;1917;-45
2021/07/25 05:39:02;;;;;;;;;;;;;;;21.47;62.14;100953.00;5161271;27;802;-55
2021/07/25 05:41:28;;;;;;;;;;;;;;;20.94;64.31;100951.34;5160995;27;968;-57
2021/07/25 05:43:53;;;;;;;;;;;;;;;20.74;63.41;100950.50;5160822;27;850;-57
2021/07/25 05:46:19;;;;;;;;;;;;;;;20.29;60.77;100963.78;5161189;27;806;-56
2021/07/25 05:48:44;;;;;;;;;;;;;;;20.74;61.00;100969.84;5160889;27;747;-56
2021/07/25 05:51:10;;;;;;;;;;;;;;;21.39;61.74;100971.09;5160740;27;827;-59
2021/07/25 05:53:35;;;;;;;;;;;;;;;21.72;61.71;100965.59;5161415;27;798;-58
2021/07/25 05:56:00;;;;;;;;;;;;;;;21.93;60.98;100968.81;5160352;27;1917;-61
2021/07/25 05:58:26;;;;;;;;;;;;;;;21.26;62.71;100969.09;5160557;27;795;-57
2021/07/25 06:00:54;;;;;;;;;;;;;;;20.80;64.53;100968.69;5160989;27;777;-58
2021/07/25 06:03:20;;;;;;;;;;;;;;;20.52;64.33;100962.09;5160468;27;901;-56
2021/07/25 06:05:45;;;;;;;;;;;;;;;20.65;59.69;100975.19;5160675;27;1104;-57
2021/07/25 06:08:11;;;;;;;;;;;;;;;21.19;59.97;100969.47;5160577;27;795;-45
2021/07/25 06:10:40;;;;;;;;;;;;;;;21.68;61.63;100967.31;5160188;27;795;-56
2021/07/25 06:13:05;;;;;;;;;;;;;;;22.09;60.81;100969.34;5160178;27;1017;-60
2021/07/25 06:15:31;;;;;;;;;;;;;;;21.71;61.85;100963.94;5160519;27;785;-57
2021/07/25 06:17:57;;;;;;;;;;;;;;;21.50;62.73;100969.81;5160180;27;1966;-47
2021/07/25 06:20:22;;;;;;;;;;;;;;;21.13;62.61;100960.44;5160456;27;767;-48
2021/07/25 06:22:51;;;;;;;;;;;;;;;20.20;59.59;100960.00;5160053;27;811;-55
2021/07/25 06:25:20;;;;;;;;;;;;;;;20.98;59.51;100949.63;5160669;27;803;-46
2021/07/25 06:27:46;;;;;;;;;;;;;;;20.43;60.82;100956.41;5160259;27;989;-61
2021/07/25 06:30:12;;;;;;;;;;;;;;;20.53;57.68;100952.69;5159677;27;790;-56
2021/07/25 06:32:56;;;;;;;;;;;;;;;20.31;56.32;100947.72;5159781;27;858;-47
2021/07/25 06:35:22;;;;;;;;;;;;;;;19.96;56.49;100958.06;5160196;27;799;-56
2021/07/25 06:37:47;;;;;;;;;;;;;;;20.25;56.24;100951.66;5160141;27;1962;-55
2021/07/25 06:40:13;;;;;;;;;;;;;;;20.31;58.44;100953.25;5160008;27;743;-56
2021/07/25 06:42:38;;;;;;;;;;;;;;;20.71;60.35;100951.09;5159593;27;1008;-55
2021/07/25 06:45:04;;;;;;;;;;;;;;;21.07;61.20;100944.22;5160096;27;743;-59
2021/07/25 06:47:29;;;;;;;;;;;;;;;20.71;63.91;100945.59;5159725;27;783;-57
2021/07/25 06:49:55;;;;;;;;;;;;;;;20.69;65.17;100947.81;5159550;27;791;-54
2021/07/25 06:52:20;;;;;;;;;;;;;;;20.55;63.99;100946.88;5141022;27;810;-56
2021/07/25 06:54:46;;;;;;;;;;;;;;;20.49;60.42;100951.63;5160114;27;779;-57
2021/07/25 06:57:11;;;;;;;;;;;;;;;20.76;60.42;100959.34;5159243;27;1901;-57
2021/07/25 06:59:37;;;;;;;;;;;;;;;21.45;61.78;100944.19;5159452;27;787;-49
2021/07/25 07:02:02;;;;;;;;;;;;;;;21.80;62.61;100951.06;5159308;27;819;-58
2021/07/25 07:04:28;;;;;;;;;;;;;;;21.72;63.51;100954.53;5159630;27;1332;-55
2021/07/25 07:06:53;;;;;;;;;;;;;;;22.02;62.18;100958.69;5171271;27;1350;-53
2021/07/25 07:09:19;;;;;;;;;;;;;;;21.14;64.82;100959.31;5180249;27;778;-55
2021/07/25 07:11:44;;;;;;;;;;;;;;;21.17;64.60;100955.16;5171175;27;870;-54
2021/07/25 07:14:10;;;;;;;;;;;;;;;20.35;62.20;100968.09;5158707;27;747;-52
2021/07/25 07:16:35;;;;;;;;;;;;;;;19.44;60.17;100955.72;5159231;27;1905;-54
2021/07/25 07:19:00;;;;;;;;;;;;;;;20.12;60.10;100962.28;5159184;27;665;-55
2021/07/25 07:21:26;;;;;;;;;;;;;;;20.29;59.17;100961.00;5159041;27;783;-51
2021/07/25 07:23:51;;;;;;;;;;;;;;;20.49;57.62;100971.78;5159058;27;818;-55
2021/07/25 07:26:17;;;;;;;;;;;;;;;20.25;58.08;100962.72;5158853;27;961;-47
2021/07/25 07:28:42;;;;;;;;;;;;;;;20.29;58.36;100963.78;5158635;27;759;-51
2021/07/25 07:31:08;;;;;;;;;;;;;;;20.42;57.82;100963.03;5159084;27;747;-53
2021/07/25 07:33:33;;;;;;;;;;;;;;;20.71;57.38;100966.88;5158685;27;743;-53
2021/07/25 07:35:58;;;;;;;;;;;;;;;20.34;58.11;100971.97;5158799;27;1913;-58
2021/07/25 07:38:24;;;;;;;;;;;;;;;21.13;56.02;100963.22;5158927;27;865;-58
2021/07/25 07:40:49;;;;;;;;;;;;;;;21.08;56.11;100968.81;5158378;27;790;-58
2021/07/25 07:43:19;;;;;;;;;;;;;;;21.17;55.84;100972.53;5158423;27;1012;-59
2021/07/25 07:45:44;;;;;;;;;;;;;;;20.89;56.38;100979.88;5140986;27;520;-57
2021/07/25 07:48:10;;;;;;;;;;;;;;;20.61;57.41;100976.91;5158363;27;747;-53
2021/07/25 07:50:35;;;;;;;;;;;;;;;20.69;57.11;100980.97;5158830;27;865;-58
2021/07/25 07:53:01;;;;;;;;;;;;;;;20.57;57.26;100972.28;5158273;27;747;-45
2021/07/25 07:55:26;;;;;;;;;;;;;;;20.69;57.11;100980.97;5158687;27;790;-52
2021/07/25 07:57:52;;;;;;;;;;;;;;;20.59;57.17;100979.13;5158454;27;1991;-58
2021/07/25 08:00:17;;;;;;;;;;;;;;;20.67;56.90;100980.41;5158363;27;767;-52
2021/07/25 08:02:43;;;;;;;;;;;;;;;20.68;56.90;100982.91;5158648;27;736;-58
2021/07/25 08:05:08;;;;;;;;;;;;;;;20.70;56.88;100979.84;5157968;27;1021;-58
2021/07/25 08:07:34;;;;;;;;;;;;;;;20.61;57.02;100974.13;5158257;27;767;-58
2021/07/25 08:09:59;;;;;;;;;;;;;;;20.65;57.09;100983.47;5158521;27;846;-54
2021/07/25 08:12:25;;;;;;;;;;;;;;;20.55;57.24;100977.25;5157062;27;977;-55
2021/07/25 08:14:50;;;;;;;;;;;;;;;20.05;58.93;100983.91;5157651;27;859;-55
2021/07/25 08:17:15;;;;;;;;;;;;;;;19.91;58.92;100985.69;5158421;27;1980;-58
2021/07/25 08:19:41;;;;;;;;;;;;;;;19.34;60.04;100988.09;5157999;27;827;-55
2021/07/25 08:22:07;;;;;;;;;;;;;;;20.20;59.08;100987.59;5158112;27;803;-47
2021/07/25 08:24:35;;;;;;;;;;;;;;;20.85;59.67;100985.16;5157991;27;730;-46
2021/07/25 08:27:01;;;;;;;;;;;;;;;21.32;59.99;100976.19;5157807;27;953;-53
2021/07/25 08:29:26;;;;;;;;;;;;;;;20.88;63.24;100983.75;5158037;27;775;-52
2021/07/25 08:31:52;;;;;;;;;;;;;;;21.00;63.58;100977.81;5157705;27;767;-62
2021/07/25 08:34:17;;;;;;;;;;;;;;;20.80;61.65;100979.72;5157980;27;807;-56
2021/07/25 08:36:43;;;;;;;;;;;;;;;20.45;58.32;100983.72;5158079;27;1917;-51
2021/07/25 08:39:08;;;;;;;;;;;;;;;21.17;59.68;100978.06;5158273;27;783;-56
2021/07/25 08:41:56;;;;;;;;;;;;;;;21.72;61.88;100986.94;5157742;27;969;-54
2021/07/25 08:44:24;;;;;;;;;;;;;;;22.14;62.14;100983.09;5157383;27;775;-57
2021/07/25 08:46:56;;;;;;;;;;;;;;;22.43;62.16;100979.22;5157942;27;506;-57
2021/07/25 08:49:26;;;;;;;;;;;;;;;22.06;62.97;100992.09;5158197;27;746;-56
2021/07/25 08:51:54;;;;;;;;;;;;;;;21.10;64.15;100994.22;5139333;27;751;-57
2021/07/25 08:54:20;;;;;;;;;;;;;;;20.52;61.74;100990.56;5141484;27;932;-58
2021/07/25 08:56:45;;;;;;;;;;;;;;;19.97;59.33;100979.84;5143118;27;1990;-57
2021/07/25 08:59:10;;;;;;;;;;;;;;;20.05;58.15;100981.16;5142802;27;962;-44
2021/07/25 09:01:36;;;;;;;;;;;;;;;20.01;55.76;100993.88;5143626;27;790;-57
2021/07/25 09:04:02;;;;;;;;;;;;;;;19.81;54.55;100981.94;5161939;27;1135;-44
2021/07/25 09:06:39;;;;;;;;;;;;;;;19.91;53.21;100985.69;5161984;27;779;-56
2021/07/25 09:09:05;;;;;;;;;;;;;;;19.96;52.53;100994.78;5161834;27;815;-54
2021/07/25 09:11:30;;;;;;;;;;;;;;;19.91;53.54;100986.53;5161285;27;952;-60
2021/07/25 09:13:58;;;;;;;;;;;;;;;20.33;56.47;100993.25;5161593;27;803;-56
2021/07/25 09:16:28;;;;;;;;;;;;;;;20.58;59.21;100990.47;5161526;27;1917;-58
2021/07/25 09:18:53;;;;;;;;;;;;;;;21.01;60.54;101007.91;5161695;27;831;-57
2021/07/25 09:21:37;;;;;;;;;;;;;;;20.69;63.13;101000.31;5161783;27;785;-56
2021/07/25 09:24:21;;;;;;;;;;;;;;;20.93;63.77;100999.44;5161664;27;806;-58
2021/07/25 09:26:54;;;;;;;;;;;;;;;20.67;61.71;101002.53;5161020;27;964;-50
2021/07/25 09:29:23;;;;;;;;;;;;;;;20.18;59.36;100996.19;5161547;27;759;-57
2021/07/25 09:31:49;;;;;;;;;;;;;;;21.17;61.99;100988.31;5161362;27;813;-60
2021/07/25 09:34:35;;;;;;;;;;;;;;;21.46;63.19;100993.69;5161209;27;810;-56
2021/07/25 09:37:06;;;;;;;;;;;;;;;21.80;63.37;101000.88;5160213;27;1984;-61
2021/07/25 09:39:35;;;;;;;;;;;;;;;21.48;63.57;101002.47;5161346;27;751;-56
2021/07/25 09:42:01;;;;;;;;;;;;;;;21.07;64.55;100997.59;5160753;27;1023;-56
2021/07/25 09:44:27;;;;;;;;;;;;;;;20.97;62.48;100997.72;5153123;27;877;-50
2021/07/25 09:46:53;;;;;;;;;;;;;;;19.94;59.03;100999.75;5140202;27;889;-60
2021/07/25 09:49:19;;;;;;;;;;;;;;;19.66;60.21;100988.38;5139756;27;787;-56
2021/07/25 09:51:45;;;;;;;;;;;;;;;19.62;57.50;100990.06;5140372;27;763;-55
2021/07/25 09:54:10;;;;;;;;;;;;;;;19.87;55.83;100985.47;5140403;27;787;-43
2021/07/25 09:56:36;;;;;;;;;;;;;;;20.65;57.54;100989.00;5142536;27;1909;-57
2021/07/25 09:59:01;;;;;;;;;;;;;;;21.29;59.08;100987.84;5160902;27;798;-56
2021/07/25 10:01:33;;;;;;;;;;;;;;;21.31;61.28;100980.91;5160505;27;743;-46
2021/07/25 10:04:14;;;;;;;;;;;;;;;21.11;63.52;100975.69;5160604;27;827;-56
2021/07/25 10:06:40;;;;;;;;;;;;;;;21.23;63.26;100986.31;5160037;27;869;-58
2021/07/25 10:09:07;;;;;;;;;;;;;;;21.00;61.54;100977.81;5160247;27;814;-56
2021/07/25 10:11:32;;;;;;;;;;;;;;;20.88;59.16;100985.72;5150783;27;1560;-43
2021/07/25 10:13:58;;;;;;;;;;;;;;;21.05;59.53;100974.94;5137321;27;887;-55
2021/07/25 10:16:25;;;;;;;;;;;;;;;21.74;61.60;100979.13;5160075;27;1909;-56
2021/07/25 10:18:50;;;;;;;;;;;;;;;22.04;62.25;100986.06;5160416;27;831;-55
2021/07/25 10:21:16;;;;;;;;;;;;;;;22.05;63.02;100985.75;5160604;27;745;-57
2021/07/25 10:23:44;;;;;;;;;;;;;;;21.83;63.95;100983.66;5141890;27;815;-44
2021/07/25 10:26:09;;;;;;;;;;;;;;;21.60;63.00;100995.69;5157285;27;1013;-58
2021/07/25 10:28:35;;;;;;;;;;;;;;;20.41;57.73;100977.16;5103407;27;1366;-57
2021/07/25 10:31:00;;;;;;;;;;;;;;;20.45;57.86;100979.03;5139419;27;787;-56
2021/07/25 10:33:29;;;;;;;;;;;;;;;20.14;58.63;100978.56;5139552;27;830;-57
2021/07/25 10:35:57;;;;;;;;;;;;;;;19.82;57.42;100975.31;5120785;27;1913;-44
2021/07/25 10:38:23;;;;;;;;;;;;;;;20.59;56.71;100972.78;5139248;27;862;-54
2021/07/25 10:40:48;;;;;;;;;;;;;;;21.02;58.91;100979.13;5139090;27;771;-54
2021/07/25 10:43:15;;;;;;;;;;;;;;;21.43;60.33;100983.19;5120063;27;1021;-54
2021/07/25 10:45:40;;;;;;;;;;;;;;;21.33;62.63;100977.84;5139109;27;886;-56
2021/07/25 10:48:13;;;;;;;;;;;;;;;21.22;64.29;100981.88;5139423;27;810;-43
2021/07/25 10:50:39;;;;;;;;;;;;;;;21.11;63.56;100976.53;5138903;27;771;-55
2021/07/25 10:53:04;;;;;;;;;;;;;;;20.82;60.03;100977.47;5120633;27;808;-56
2021/07/25 10:55:32;;;;;;;;;;;;;;;21.11;56.79;100973.75;5139000;27;850;-56
2021/07/25 10:58:02;;;;;;;;;;;;;;;21.61;59.91;100973.25;5138450;27;1967;-58
2021/07/25 11:00:40;;;;;;;;;;;;;;;21.87;61.62;100968.09;5138955;27;763;-54
2021/07/25 11:03:06;;;;;;;;;;;;;;;22.11;63.14;100977.34;5138938;27;815;-54
2021/07/25 11:05:31;;;;;;;;;;;;;;;22.17;63.23;100971.38;5151264;27;1228;-57
2021/07/25 11:07:57;;;;;;;;;;;;;;;21.82;64.39;100984.78;5140899;27;823;-49
2021/07/25 11:10:35;;;;;;;;;;;;;;;21.85;62.17;100981.41;5159566;27;775;-59
2021/07/25 11:13:01;;;;;;;;;;;;;;;20.68;59.92;100982.09;5159013;27;1019;-56
2021/07/25 11:15:32;;;;;;;;;;;;;;;20.93;61.05;100977.31;5140837;27;1172;-59
2021/07/25 11:17:58;;;;;;;;;;;;;;;21.08;61.68;100971.56;5159004;27;1897;-50
2021/07/25 11:20:32;;;;;;;;;;;;;;;21.08;61.46;100981.81;5158957;27;818;-55
2021/07/25 11:22:58;;;;;;;;;;;;;;;21.12;60.26;100969.84;5159239;27;782;-49
2021/07/25 11:25:32;;;;;;;;;;;;;;;21.10;58.92;100977.63;5159744;27;821;-54
2021/07/25 11:27:58;;;;;;;;;;;;;;;21.09;57.94;100977.94;5159080;27;969;-45
2021/07/25 11:30:42;;;;;;;;;;;;;;;21.17;57.14;100967.00;5159159;27;920;-55
2021/07/25 11:33:07;;;;;;;;;;;;;;;20.92;57.23;100970.16;5158579;27;842;-44
2021/07/25 11:35:32;;;;;;;;;;;;;;;21.10;56.56;100969.34;5140657;27;827;-55
2021/07/25 11:37:58;;;;;;;;;;;;;;;20.87;56.68;100967.47;5140108;27;1970;-44
2021/07/25 11:40:24;;;;;;;;;;;;;;;21.09;55.98;100973.22;5158694;27;774;-59
2021/07/25 11:42:50;;;;;;;;;;;;;;;21.16;55.22;100965.38;5158607;27;949;-56
2021/07/25 11:45:15;;;;;;;;;;;;;;;20.97;55.60;100964.56;5158519;27;830;-51
2021/07/25 11:47:41;;;;;;;;;;;;;;;20.74;56.19;100964.31;5158251;27;723;-55
2021/07/25 11:50:06;;;;;;;;;;;;;;;21.02;55.02;100958.97;5158817;27;838;-55
2021/07/25 11:52:32;;;;;;;;;;;;;;;20.96;55.32;100958.22;5158704;27;817;-57
2021/07/25 11:54:57;;;;;;;;;;;;;;;20.92;55.42;100962.69;5158463;27;827;-43
2021/07/25 11:57:27;;;;;;;;;;;;;;;20.96;55.01;100954.63;5139240;27;1976;-55
2021/07/25 11:59:58;;;;;;;;;;;;;;;20.94;55.16;100954.09;5158797;27;810;-55
2021/07/25 12:02:27;;;;;;;;;;;;;;;21.05;54.83;100958.34;5158438;27;782;-43
2021/07/25 12:04:52;;;;;;;;;;;;;;;21.13;54.16;100952.16;5158369;27;1081;-55
2021/07/25 12:07:19;;;;;;;;;;;;;;;21.14;54.29;100964.84;5158384;27;791;-54
2021/07/25 12:09:48;;;;;;;;;;;;;;;21.05;54.42;100963.88;5158256;27;831;-55
2021/07/25 12:12:14;;;;;;;;;;;;;;;20.88;54.89;100955.31;5157976;27;930;-56
2021/07/25 12:14:44;;;;;;;;;;;;;;;20.61;55.60;100954.00;5158493;27;814;-43
2021/07/25 12:17:09;;;;;;;;;;;;;;;20.48;56.08;100956.34;5158179;27;1909;-51
2021/07/25 12:19:38;;;;;;;;;;;;;;;20.16;56.00;100955.06;5158246;27;831;-55
2021/07/25 12:22:04;;;;;;;;;;;;;;;20.22;56.73;100958.59;5158139;27;755;-55
2021/07/25 12:24:33;;;;;;;;;;;;;;;20.43;56.52;100959.16;5139490;27;1171;-56
2021/07/25 12:26:59;;;;;;;;;;;;;;;20.65;55.97;100952.25;5157908;27;1016;-56
2021/07/25 12:29:34;;;;;;;;;;;;;;;20.73;55.38;100948.84;5157134;27;843;-57
2021/07/25 12:32:00;;;;;;;;;;;;;;;20.89;55.07;100954.16;5158053;27;829;-52
2021/07/25 12:34:25;;;;;;;;;;;;;;;21.11;54.54;100948.88;5139719;27;752;-56
2021/07/25 12:36:50;;;;;;;;;;;;;;;20.97;55.15;100950.72;5157441;27;1910;-52
2021/07/25 12:39:17;;;;;;;;;;;;;;;21.17;54.43;100950.44;5157910;27;751;-54
2021/07/25 12:41:42;;;;;;;;;;;;;;;21.30;54.17;100942.50;5139910;27;977;-53
2021/07/25 12:44:08;;;;;;;;;;;;;;;21.11;54.36;100950.78;5157716;27;534;-49
2021/07/25 12:46:33;;;;;;;;;;;;;;;21.32;53.81;100951.28;5157879;27;800;-59
2021/07/25 12:49:05;;;;;;;;;;;;;;;20.78;55.19;100948.78;5139107;27;818;-43
2021/07/25 12:51:41;;;;;;;;;;;;;;;20.45;56.25;100956.09;5157663;27;847;-55
2021/07/25 12:54:07;;;;;;;;;;;;;;;20.30;55.93;100951.59;5157978;27;851;-44